Anzoras — EAZC — position and weather

sailwx.info

Track history (hours):
 
Tides and Currents Weather Stations Pressure Air Temp Water Temp Dewpoint Dewpoint Depression Visibility Wind Speed Wind Dir Waves Ship Positions

Anzoras

Last reported at 2014-Jul-24 18:06 UTC. Time now 2014-Jul-28 22:39 UTC.
Position N 46°04' W 002°50'.

Length 100 m; draft 4.5 m.

Type: Cargo ship. MMSI: 224376000.

Date/timePositionNaut miles runAvg speedWind from/ knotsBaromVisibWave heightAir tempDewpointWater temp
2014-Jul-24 18:06N 46°04' W 002°50'1912.5
2014-Jul-24 16:33N 46°23' W 002°44'4012.3
2014-Jul-24 13:20N 47°01' W 002°29'21 2.2
2014-Jul-24 03:33N 47°18' W 002°09'0 0.0
2014-Jul-24 02:33N 47°18' W 002°09'0 0.0
2014-Jul-22 05:11N 47°18' W 002°09'0 0.0
2014-Jul-22 03:11N 47°18' W 002°09'0 0.0
2014-Jul-22 02:33N 47°18' W 002°09'  
2014-Jul-18 21:33N 47°32' W 004°06'1110.6
2014-Jul-18 20:33N 47°37' W 004°20'2010.1
2014-Jul-18 18:33N 47°48' W 004°45'10 9.8
2014-Jul-18 17:33N 47°53' W 004°58'10 9.6
2014-Jul-18 16:33N 47°57' W 005°11'10 9.5
2014-Jul-18 15:33N 48°04' W 005°20'2211.1
2014-Jul-18 13:33N 48°26' W 005°26'197 9.3
2014-Jul-17 16:19N 50°23' W 001°22'1012.9
2014-Jul-17 15:32N 50°25' W 001°06'1111.3
2014-Jul-17 14:33N 50°28' W 000°49'34 8.3
2014-Jul-17 10:28N 50°33' E 000°03'2211.3
2014-Jul-17 08:33N 50°39' E 000°36'3712.4
2014-Jul-17 05:33N 51°02' E 001°23'9 9.5
2014-Jul-17 04:34N 51°08' E 001°34'9 8.5
2014-Jul-17 03:33N 51°14' E 001°45'10 9.8
2014-Jul-17 02:30N 51°23' E 001°52'1111.8
2014-Jul-17 01:33N 51°32' E 002°03'1313.4
2014-Jul-17 00:33N 51°42' E 002°17'1814.0
2014-Jul-16 23:17N 51°55' E 002°36'1013.7
2014-Jul-16 22:33N 52°02' E 002°47'1312.9
2014-Jul-16 21:31N 52°12' E 003°02'1211.9
2014-Jul-16 20:29N 52°22' E 003°14'1011.0
2014-Jul-16 19:33N 52°30' E 003°25'1211.7
2014-Jul-16 18:33N 52°30' E 003°45'1211.4
2014-Jul-16 17:29N 52°31' E 004°05'1111.8
2014-Jul-16 16:33N 52°29' E 004°23'9 8.6
2014-Jul-16 15:33N 52°28' E 004°37'7 6.9
2014-Jul-16 14:33N 52°26' E 004°47'1 1.0
2014-Jul-16 13:33N 52°25' E 004°49'0 0.0
2014-Jul-16 12:33N 52°25' E 004°49'0 0.0
2014-Jul-16 11:34N 52°25' E 004°49'0 0.0
2014-Jul-16 10:34N 52°25' E 004°49'0 0.0
2014-Jul-16 09:33N 52°25' E 004°49'0 0.0
2014-Jul-16 08:33N 52°25' E 004°49'0 0.0
2014-Jul-16 07:33N 52°25' E 004°49'0 0.0
2014-Jul-16 06:33N 52°25' E 004°49'0 0.0
2014-Jul-16 05:33N 52°25' E 004°49'0 0.0
2014-Jul-16 04:34N 52°25' E 004°49'0 0.0
2014-Jul-16 03:30N 52°25' E 004°49'0 0.0
2014-Jul-16 02:31N 52°25' E 004°49'0 0.0
2014-Jul-16 01:33N 52°25' E 004°49'0 0.0
2014-Jul-16 00:33N 52°25' E 004°49'0 0.0
2014-Jul-15 23:33N 52°25' E 004°49'0 0.0
2014-Jul-15 22:33N 52°25' E 004°49'0 0.0
2014-Jul-15 21:33N 52°25' E 004°49'0 0.0
2014-Jul-15 20:34N 52°25' E 004°49'0 0.0
2014-Jul-15 19:34N 52°25' E 004°49'0 0.0
2014-Jul-15 18:33N 52°25' E 004°49'0 0.0
2014-Jul-15 17:33N 52°25' E 004°49'0 0.0
2014-Jul-15 16:34N 52°25' E 004°49'0 0.0
2014-Jul-15 15:33N 52°25' E 004°49'0 0.0
2014-Jul-15 14:33N 52°25' E 004°49'0 0.0
2014-Jul-15 13:33N 52°25' E 004°49'0 0.0
2014-Jul-15 12:33N 52°25' E 004°49'0 0.0
2014-Jul-15 11:33N 52°25' E 004°49'0 0.0
2014-Jul-15 10:34N 52°25' E 004°49'0 0.0
2014-Jul-15 09:33N 52°25' E 004°49'0 0.0
2014-Jul-15 08:33N 52°25' E 004°49'0 0.0
2014-Jul-15 07:34N 52°25' E 004°49'6 5.9
2014-Jul-15 06:33N 52°28' E 004°40'4 4.0
2014-Jul-15 05:33N 52°28' E 004°33'8 8.0
2014-Jul-15 04:33N 52°29' E 004°20'33 6.5
2014-Jul-14 23:33N 52°18' E 003°29'6 5.8
2014-Jul-14 22:32N 52°15' E 003°22'  
Track history (hours):
 
Tides and Currents Weather Stations Pressure Air Temp Water Temp Dewpoint Dewpoint Depression Visibility Wind Speed Wind Dir Waves Ship Positions

Anzoras

Last reported at 2014-Jul-24 18:06 UTC. Time now 2014-Jul-28 22:39 UTC.
Position N 46°04' W 002°50'.

Length 100 m; draft 4.5 m.

Type: Cargo ship. MMSI: 224376000.

Date/timePositionNaut miles runAvg speedWind from/ knotsBaromVisibWave heightAir tempDewpointWater temp
2014-Jul-24 18:06N 46°04' W 002°50'1912.5
2014-Jul-24 16:33N 46°23' W 002°44'4012.3
2014-Jul-24 13:20N 47°01' W 002°29'21 2.2
2014-Jul-24 03:33N 47°18' W 002°09'0 0.0
2014-Jul-24 02:33N 47°18' W 002°09'0 0.0
2014-Jul-22 05:11N 47°18' W 002°09'0 0.0
2014-Jul-22 03:11N 47°18' W 002°09'0 0.0
2014-Jul-22 02:33N 47°18' W 002°09'  
2014-Jul-18 21:33N 47°32' W 004°06'1110.6
2014-Jul-18 20:33N 47°37' W 004°20'2010.1
2014-Jul-18 18:33N 47°48' W 004°45'10 9.8
2014-Jul-18 17:33N 47°53' W 004°58'10 9.6
2014-Jul-18 16:33N 47°57' W 005°11'10 9.5
2014-Jul-18 15:33N 48°04' W 005°20'2211.1
2014-Jul-18 13:33N 48°26' W 005°26'197 9.3
2014-Jul-17 16:19N 50°23' W 001°22'1012.9
2014-Jul-17 15:32N 50°25' W 001°06'1111.3
2014-Jul-17 14:33N 50°28' W 000°49'34 8.3
2014-Jul-17 10:28N 50°33' E 000°03'2211.3
2014-Jul-17 08:33N 50°39' E 000°36'3712.4
2014-Jul-17 05:33N 51°02' E 001°23'9 9.5
2014-Jul-17 04:34N 51°08' E 001°34'9 8.5
2014-Jul-17 03:33N 51°14' E 001°45'10 9.8
2014-Jul-17 02:30N 51°23' E 001°52'1111.8
2014-Jul-17 01:33N 51°32' E 002°03'1313.4
2014-Jul-17 00:33N 51°42' E 002°17'1814.0
2014-Jul-16 23:17N 51°55' E 002°36'1013.7
2014-Jul-16 22:33N 52°02' E 002°47'1312.9
2014-Jul-16 21:31N 52°12' E 003°02'1211.9
2014-Jul-16 20:29N 52°22' E 003°14'1011.0
2014-Jul-16 19:33N 52°30' E 003°25'1211.7
2014-Jul-16 18:33N 52°30' E 003°45'1211.4
2014-Jul-16 17:29N 52°31' E 004°05'1111.8
2014-Jul-16 16:33N 52°29' E 004°23'9 8.6
2014-Jul-16 15:33N 52°28' E 004°37'7 6.9
2014-Jul-16 14:33N 52°26' E 004°47'1 1.0
2014-Jul-16 13:33N 52°25' E 004°49'0 0.0
2014-Jul-16 12:33N 52°25' E 004°49'0 0.0
2014-Jul-16 11:34N 52°25' E 004°49'0 0.0
2014-Jul-16 10:34N 52°25' E 004°49'0 0.0
2014-Jul-16 09:33N 52°25' E 004°49'0 0.0
2014-Jul-16 08:33N 52°25' E 004°49'0 0.0
2014-Jul-16 07:33N 52°25' E 004°49'0 0.0
2014-Jul-16 06:33N 52°25' E 004°49'0 0.0
2014-Jul-16 05:33N 52°25' E 004°49'0 0.0
2014-Jul-16 04:34N 52°25' E 004°49'0 0.0
2014-Jul-16 03:30N 52°25' E 004°49'0 0.0
2014-Jul-16 02:31N 52°25' E 004°49'0 0.0
2014-Jul-16 01:33N 52°25' E 004°49'0 0.0
2014-Jul-16 00:33N 52°25' E 004°49'0 0.0
2014-Jul-15 23:33N 52°25' E 004°49'0 0.0
2014-Jul-15 22:33N 52°25' E 004°49'0 0.0
2014-Jul-15 21:33N 52°25' E 004°49'0 0.0
2014-Jul-15 20:34N 52°25' E 004°49'0 0.0
2014-Jul-15 19:34N 52°25' E 004°49'0 0.0
2014-Jul-15 18:33N 52°25' E 004°49'0 0.0
2014-Jul-15 17:33N 52°25' E 004°49'0 0.0
2014-Jul-15 16:34N 52°25' E 004°49'0 0.0
2014-Jul-15 15:33N 52°25' E 004°49'0 0.0
2014-Jul-15 14:33N 52°25' E 004°49'0 0.0
2014-Jul-15 13:33N 52°25' E 004°49'0 0.0
2014-Jul-15 12:33N 52°25' E 004°49'0 0.0
2014-Jul-15 11:33N 52°25' E 004°49'0 0.0
2014-Jul-15 10:34N 52°25' E 004°49'0 0.0
2014-Jul-15 09:33N 52°25' E 004°49'0 0.0
2014-Jul-15 08:33N 52°25' E 004°49'0 0.0
2014-Jul-15 07:34N 52°25' E 004°49'6 5.9
2014-Jul-15 06:33N 52°28' E 004°40'4 4.0
2014-Jul-15 05:33N 52°28' E 004°33'8 8.0
2014-Jul-15 04:33N 52°29' E 004°20'33 6.5
2014-Jul-14 23:33N 52°18' E 003°29'6 5.8
2014-Jul-14 22:32N 52°15' E 003°22'  

Dump ship's entire track history